Terminal Aerodrome Forecast
Issued by NWS Corpus Christi, TX

Home | Current Version | Previous Version | Text Only | Print | Product List | Glossary On
Versions: 1 2 3 4 5 6 7 8 9 10 11 12 13 14
000
FTUS44 KCRP 241700
TAFVCT
TAF
KVCT 241736Z 2418/2518 VRB06KT P6SM VCTS SCT035CB BKN150
      TEMPO 2418/2422 3SM TS BR BKN035CB
     FM242300 VRB06KT P6SM FEW040 SCT250
      TEMPO 2510/2512 5SM BR SCT015=

USA.gov is the U.S. government's official web portal to all federal, state and local government web resources and services.